createdAt,value
2022-12-03T00:00:41.020Z,102590.72
2022-12-03T00:03:08.077Z,102594.88
2022-12-03T00:05:35.652Z,102601.78
2022-12-03T00:08:03.040Z,102590.41
2022-12-03T00:10:30.310Z,102580.50
2022-12-03T00:12:57.142Z,102581.34
2022-12-03T00:15:24.301Z,102584.38
2022-12-03T00:17:51.733Z,102583.84
2022-12-03T00:20:21.766Z,102585.47
2022-12-03T00:22:49.244Z,102587.13
2022-12-03T00:25:16.562Z,102590.41
2022-12-03T00:27:43.902Z,102585.47
2022-12-03T00:30:11.891Z,102570.09
2022-12-03T00:32:38.925Z,102577.53
2022-12-03T00:35:06.722Z,102566.50
2022-12-03T00:37:35.562Z,102577.25
2022-12-03T00:40:04.671Z,102577.84
2022-12-03T00:42:31.800Z,102572.91
2022-12-03T00:44:58.791Z,102569.59
2022-12-03T00:47:25.711Z,102578.41
2022-12-03T00:49:52.751Z,102571.84
2022-12-03T00:52:19.752Z,102568.78
2022-12-03T00:54:46.788Z,102560.25
2022-12-03T00:57:13.942Z,102574.84
2022-12-03T00:59:41.412Z,102580.91
2022-12-03T01:02:08.538Z,102572.66
2022-12-03T01:04:36.051Z,102571.88
2022-12-03T01:07:02.953Z,102561.66
2022-12-03T01:09:30.162Z,102571.88
2022-12-03T01:11:57.598Z,102565.25
2022-12-03T01:14:24.600Z,102563.34
2022-12-03T01:16:51.641Z,102561.97
2022-12-03T01:19:19.666Z,102564.47
2022-12-03T01:21:49.601Z,102565.00
2022-12-03T01:24:18.324Z,102546.25
2022-12-03T01:26:45.352Z,102552.09
2022-12-03T01:29:12.627Z,102543.00
2022-12-03T01:31:58.151Z,102537.75
2022-12-03T01:34:25.152Z,102549.88
2022-12-03T01:36:52.782Z,102538.03
2022-12-03T01:39:20.014Z,102544.38
2022-12-03T01:41:47.842Z,102546.28
2022-12-03T01:44:21.721Z,102546.28
2022-12-03T01:46:49.691Z,102546.84
2022-12-03T01:49:22.654Z,102534.72
2022-12-03T01:51:51.161Z,102536.13
2022-12-03T01:54:36.382Z,102530.06
2022-12-03T01:57:03.546Z,102533.38
2022-12-03T01:59:36.455Z,102528.41
2022-12-03T02:02:36.023Z,102527.88
2022-12-03T02:05:16.342Z,102528.16
2022-12-03T02:07:43.470Z,102509.97
2022-12-03T02:10:12.689Z,102516.56
2022-12-03T02:12:59.365Z,102521.28
2022-12-03T02:15:26.800Z,102521.56
2022-12-03T02:17:54.151Z,102521.00
2022-12-03T02:20:21.712Z,102526.81
2022-12-03T02:22:54.465Z,102527.66
2022-12-03T02:25:23.483Z,102525.97
2022-12-03T02:27:51.306Z,102530.13
2022-12-03T02:30:21.144Z,102535.91
2022-12-03T02:32:48.943Z,102518.81
2022-12-03T02:35:21.912Z,102521.84
2022-12-03T02:37:52.241Z,102526.28
2022-12-03T02:40:21.203Z,102529.59
2022-12-03T02:42:49.402Z,102525.16
2022-12-03T02:45:22.701Z,102518.84
2022-12-03T02:48:03.492Z,102505.34
2022-12-03T02:50:33.840Z,102511.13
2022-12-03T02:53:03.973Z,102511.38
2022-12-03T02:55:36.576Z,102512.78
2022-12-03T02:58:05.213Z,102507.53
2022-12-03T03:00:32.519Z,102494.84
2022-12-03T03:02:59.814Z,102498.19
2022-12-03T03:05:26.548Z,102497.06
2022-12-03T03:07:53.283Z,102504.78
2022-12-03T03:10:22.725Z,102502.03
2022-12-03T03:12:50.042Z,102501.78
2022-12-03T03:15:16.777Z,102495.69
2022-12-03T03:17:44.410Z,102488.53
2022-12-03T03:20:11.680Z,102489.91
2022-12-03T03:22:40.725Z,102475.84
2022-12-03T03:25:09.235Z,102491.56
2022-12-03T03:27:36.844Z,102476.69
2022-12-03T03:30:04.407Z,102486.63
2022-12-03T03:32:31.366Z,102481.94
2022-12-03T03:34:58.770Z,102475.84
2022-12-03T03:37:26.063Z,102486.59
2022-12-03T03:39:52.896Z,102476.13
2022-12-03T03:42:19.763Z,102476.97
2022-12-03T03:44:48.168Z,102476.38
2022-12-03T03:47:15.088Z,102480.81
2022-12-03T03:49:42.288Z,102475.00
2022-12-03T03:52:11.703Z,102473.63
2022-12-03T03:54:39.176Z,102476.13
2022-12-03T03:57:06.194Z,102462.63
2022-12-03T03:59:32.861Z,102468.72
2022-12-03T04:01:59.606Z,102468.72
2022-12-03T04:04:26.909Z,102457.41
2022-12-03T04:06:53.703Z,102436.19
2022-12-03T04:09:20.483Z,102456.31
2022-12-03T04:12:05.755Z,102447.19
2022-12-03T04:14:32.523Z,102432.59
2022-12-03T04:16:59.241Z,102446.66
2022-12-03T04:19:26.023Z,102440.31
2022-12-03T04:22:11.340Z,102439.78
2022-12-03T04:24:38.175Z,102443.63
2022-12-03T04:27:23.248Z,102453.25
2022-12-03T04:29:50.031Z,102441.69
2022-12-03T04:32:35.426Z,102445.00
2022-12-03T04:35:20.910Z,102439.47
2022-12-03T04:37:47.639Z,102431.78
2022-12-03T04:40:33.126Z,102443.88
2022-12-03T04:42:59.743Z,102445.84
2022-12-03T04:45:26.427Z,102437.00
2022-12-03T04:47:53.187Z,102427.66
2022-12-03T04:50:20.022Z,102441.72
2022-12-03T04:52:46.845Z,102445.28
2022-12-03T04:55:13.477Z,102450.25
2022-12-03T04:57:40.327Z,102439.75
2022-12-03T05:00:08.573Z,102424.38
2022-12-03T05:02:35.367Z,102437.59
2022-12-03T05:05:02.053Z,102443.34
2022-12-03T05:07:29.053Z,102436.75
2022-12-03T05:09:55.731Z,102427.66
2022-12-03T05:12:22.527Z,102444.72
2022-12-03T05:14:49.142Z,102429.03
2022-12-03T05:17:16.018Z,102423.25
2022-12-03T05:20:01.385Z,102433.44
2022-12-03T05:22:28.160Z,102429.88
2022-12-03T05:24:55.096Z,102432.88
2022-12-03T05:27:24.149Z,102437.00
2022-12-03T05:29:51.570Z,102434.53
2022-12-03T05:32:18.849Z,102423.78
2022-12-03T05:34:45.525Z,102418.03
2022-12-03T05:37:12.202Z,102431.25
2022-12-03T05:39:38.826Z,102411.41
2022-12-03T05:42:24.185Z,102419.66
2022-12-03T05:44:51.013Z,102432.34
2022-12-03T05:47:17.846Z,102424.06
2022-12-03T05:49:44.638Z,102421.59
2022-12-03T05:52:11.273Z,102416.91
2022-12-03T05:54:38.011Z,102422.97
2022-12-03T05:57:04.863Z,102414.97
2022-12-03T05:59:31.794Z,102400.97
2022-12-03T06:01:58.486Z,102405.63
2022-12-03T06:04:25.277Z,102399.56
2022-12-03T06:06:51.925Z,102419.41
2022-12-03T06:09:18.805Z,102404.25
2022-12-03T06:11:45.572Z,102415.53
2022-12-03T06:14:12.607Z,102412.78
2022-12-03T06:16:39.389Z,102392.13
2022-12-03T06:19:06.145Z,102394.31
2022-12-03T06:21:32.818Z,102394.63
2022-12-03T06:24:00.117Z,102397.63
2022-12-03T06:26:26.933Z,102392.41
2022-12-03T06:28:53.669Z,102396.53
2022-12-03T06:31:20.473Z,102393.78
2022-12-03T06:33:48.652Z,102391.84
2022-12-03T06:36:18.817Z,102381.09
2022-12-03T06:38:49.434Z,102390.19
2022-12-03T06:41:16.138Z,102392.94
2022-12-03T06:43:43.189Z,102381.69
2022-12-03T06:46:09.870Z,102385.53
2022-12-03T06:48:36.664Z,102389.38
2022-12-03T06:51:03.350Z,102393.78
2022-12-03T06:53:30.107Z,102390.19
2022-12-03T06:55:56.772Z,102391.31
2022-12-03T06:58:23.504Z,102388.81
2022-12-03T07:00:50.232Z,102392.69
2022-12-03T07:03:17.098Z,102386.63
2022-12-03T07:05:43.834Z,102395.44
2022-12-03T07:08:10.654Z,102398.47
2022-12-03T07:10:37.340Z,102386.34
2022-12-03T07:13:04.052Z,102373.13
2022-12-03T07:15:30.865Z,102384.69
2022-12-03T07:17:57.650Z,102389.38
2022-12-03T07:20:24.157Z,102400.66
2022-12-03T07:22:51.005Z,102386.06
2022-12-03T07:25:22.849Z,102398.19
2022-12-03T07:27:50.085Z,102390.75
2022-12-03T07:30:16.941Z,102392.41
2022-12-03T07:32:43.755Z,102398.22
2022-12-03T07:35:10.464Z,102393.50
2022-12-03T07:37:37.528Z,102396.00
2022-12-03T07:40:05.218Z,102394.88
2022-12-03T07:42:31.836Z,102409.75
2022-12-03T07:44:58.566Z,102398.75
2022-12-03T07:47:25.321Z,102400.66
2022-12-03T07:49:52.018Z,102405.34
2022-12-03T07:52:18.542Z,102397.09
2022-12-03T07:54:45.299Z,102400.13
2022-12-03T07:57:11.923Z,102393.50
2022-12-03T07:59:38.899Z,102396.81
2022-12-03T08:02:05.559Z,102384.41
2022-12-03T08:04:32.592Z,102391.59
2022-12-03T08:06:59.417Z,102398.19
2022-12-03T08:09:26.687Z,102402.06
2022-12-03T08:11:53.840Z,102402.59
2022-12-03T08:14:20.964Z,102395.44
2022-12-03T08:16:48.275Z,102390.22
2022-12-03T08:19:16.797Z,102394.06
2022-12-03T08:21:43.882Z,102391.28
2022-12-03T08:24:14.873Z,102387.75
2022-12-03T08:26:42.252Z,102387.72
2022-12-03T08:29:13.384Z,102392.97
2022-12-03T08:31:40.894Z,102386.06
2022-12-03T08:34:18.776Z,102381.13
2022-12-03T08:36:46.473Z,102386.91
2022-12-03T08:39:33.632Z,102374.22
2022-12-03T08:42:43.256Z,102391.03
2022-12-03T08:45:41.075Z,102373.16
2022-12-03T08:48:33.082Z,102375.31
2022-12-03T08:51:18.465Z,102384.97
2022-12-03T08:53:59.771Z,102381.94
2022-12-03T08:56:30.671Z,102379.75
2022-12-03T08:59:26.184Z,102369.56
2022-12-03T09:01:56.280Z,102381.94
2022-12-03T09:04:32.380Z,102360.47
2022-12-03T09:06:59.188Z,102366.81
2022-12-03T09:09:26.098Z,102386.06
2022-12-03T09:11:54.018Z,102375.31
2022-12-03T09:14:22.640Z,102374.22
2022-12-03T09:16:52.109Z,102380.84
2022-12-03T09:19:18.946Z,102374.78
2022-12-03T09:21:46.076Z,102361.56
2022-12-03T09:24:12.930Z,102371.47
2022-12-03T09:26:39.701Z,102365.69
2022-12-03T09:29:11.672Z,102356.88
2022-12-03T09:31:39.401Z,102372.84
2022-12-03T09:34:06.960Z,102370.66
2022-12-03T09:36:33.905Z,102373.69
2022-12-03T09:39:00.581Z,102375.31
2022-12-03T09:41:27.442Z,102366.81
2022-12-03T09:44:17.156Z,102380.81
2022-12-03T09:46:42.125Z,102371.72
2022-12-03T09:49:15.538Z,102382.47
2022-12-03T09:51:44.039Z,102370.34
2022-12-03T09:54:23.871Z,102346.97
2022-12-03T09:56:50.745Z,102367.06
2022-12-03T09:59:17.868Z,102369.28
2022-12-03T10:01:44.811Z,102376.69
2022-12-03T10:04:11.822Z,102367.59
2022-12-03T10:06:45.285Z,102378.06
2022-12-03T10:09:14.657Z,102364.00
2022-12-03T10:11:41.737Z,102371.47
2022-12-03T10:14:12.507Z,102369.25
2022-12-03T10:16:40.501Z,102357.66
2022-12-03T10:19:11.985Z,102361.00
2022-12-03T10:21:39.259Z,102365.91
2022-12-03T10:24:25.993Z,102355.75
2022-12-03T10:26:58.255Z,102359.34
2022-12-03T10:29:31.614Z,102357.72
2022-12-03T10:32:09.502Z,102347.50
2022-12-03T10:34:39.215Z,102358.81
2022-12-03T10:37:10.474Z,102365.16
2022-12-03T10:39:56.597Z,102365.97
2022-12-03T10:42:29.369Z,102347.25
2022-12-03T10:45:18.027Z,102336.25
2022-12-03T10:48:02.352Z,102320.28
2022-12-03T10:50:29.123Z,102343.97
2022-12-03T10:52:56.220Z,102335.69
2022-12-03T10:55:23.875Z,102339.84
2022-12-03T10:57:51.157Z,102343.97
2022-12-03T11:00:19.789Z,102333.78
2022-12-03T11:02:53.373Z,102327.44
2022-12-03T11:05:28.870Z,102321.38
2022-12-03T11:07:56.419Z,102316.97
2022-12-03T11:10:23.703Z,102321.09
2022-12-03T11:13:28.418Z,102328.25
2022-12-03T11:15:56.253Z,102315.03
2022-12-03T11:18:36.599Z,102307.34
2022-12-03T11:21:06.597Z,102299.66
2022-12-03T11:23:45.457Z,102310.94
2022-12-03T11:26:18.596Z,102309.56
2022-12-03T11:28:45.979Z,102293.59
2022-12-03T11:31:46.794Z,102308.72
2022-12-03T11:34:23.362Z,102297.69
2022-12-03T11:37:12.364Z,102309.78
2022-12-03T11:39:44.840Z,102297.97
2022-12-03T11:42:26.480Z,102297.66
2022-12-03T11:45:06.018Z,102295.75
2022-12-03T11:47:41.830Z,102293.00
2022-12-03T11:50:23.546Z,102291.38
2022-12-03T11:53:26.242Z,102290.00
2022-12-03T11:56:06.634Z,102282.31
2022-12-03T11:58:38.554Z,102286.41
2022-12-03T12:01:07.728Z,102275.69
2022-12-03T12:03:36.082Z,102284.50
2022-12-03T12:06:24.086Z,102277.88
2022-12-03T12:08:51.640Z,102272.94
2022-12-03T12:11:30.737Z,102274.59
2022-12-03T12:13:59.588Z,102266.63
2022-12-03T12:16:51.528Z,102271.31
2022-12-03T12:19:34.345Z,102257.00
2022-12-03T12:22:20.300Z,102258.63
2022-12-03T12:24:51.871Z,102255.06
2022-12-03T12:27:25.018Z,102238.84
2022-12-03T12:29:56.213Z,102252.03
2022-12-03T12:32:25.329Z,102249.53
2022-12-03T12:34:56.365Z,102231.41
2022-12-03T12:37:32.926Z,102236.63
2022-12-03T12:40:02.097Z,102229.22
2022-12-03T12:42:30.939Z,102228.69
2022-12-03T12:45:08.616Z,102215.19
2022-12-03T12:47:36.781Z,102236.31
2022-12-03T12:50:11.307Z,102231.13
2022-12-03T12:52:49.665Z,102239.63
2022-12-03T12:55:17.678Z,102229.13
2022-12-03T12:57:45.026Z,102235.47
2022-12-03T13:00:18.196Z,102227.53
2022-12-03T13:02:50.608Z,102210.75
2022-12-03T13:05:17.954Z,102221.47
2022-12-03T13:07:45.604Z,102217.34
2022-12-03T13:10:25.209Z,102217.06
2022-12-03T13:12:52.687Z,102223.13
2022-12-03T13:15:55.207Z,102205.78
2022-12-03T13:18:30.077Z,102203.88
2022-12-03T13:20:57.734Z,102197.03
2022-12-03T13:23:35.068Z,102197.00
2022-12-03T13:26:24.857Z,102207.47
2022-12-03T13:28:57.474Z,102201.72
2022-12-03T13:31:27.692Z,102209.38
2022-12-03T13:33:56.287Z,102216.78
2022-12-03T13:36:28.076Z,102202.78
2022-12-03T13:38:55.165Z,102201.97
2022-12-03T13:41:40.525Z,102201.97
2022-12-03T13:44:15.088Z,102209.13
2022-12-03T13:46:43.276Z,102194.00
2022-12-03T13:49:20.456Z,102198.38
2022-12-03T13:51:48.496Z,102204.69
2022-12-03T13:54:20.475Z,102206.38
2022-12-03T13:56:48.847Z,102202.50
2022-12-03T13:59:20.377Z,102185.16
2022-12-03T14:01:50.592Z,102199.19
2022-12-03T14:04:17.854Z,102196.97
2022-12-03T14:06:47.924Z,102194.53
2022-12-03T14:09:15.656Z,102188.19
2022-12-03T14:12:01.605Z,102189.56
2022-12-03T14:14:29.121Z,102176.38
2022-12-03T14:17:00.132Z,102176.38
2022-12-03T14:19:27.555Z,102172.53
2022-12-03T14:21:54.715Z,102179.41
2022-12-03T14:24:21.803Z,102165.41
2022-12-03T14:26:48.907Z,102158.53
2022-12-03T14:29:17.081Z,102164.56
2022-12-03T14:31:43.886Z,102171.97
2022-12-03T14:34:10.819Z,102157.16
2022-12-03T14:36:37.657Z,102172.78
2022-12-03T14:39:05.106Z,102165.94
2022-12-03T14:41:51.176Z,102170.88
2022-12-03T14:44:18.777Z,102156.84
2022-12-03T14:46:45.917Z,102162.66
2022-12-03T14:49:13.286Z,102158.53
2022-12-03T14:51:40.507Z,102159.59
2022-12-03T14:54:08.077Z,102159.06
2022-12-03T14:56:35.596Z,102159.84
2022-12-03T14:59:02.975Z,102163.16
2022-12-03T15:01:30.445Z,102153.25
2022-12-03T15:03:58.245Z,102151.34
2022-12-03T15:06:26.344Z,102146.69
2022-12-03T15:08:54.536Z,102152.72
2022-12-03T15:11:23.428Z,102151.63
2022-12-03T15:13:52.753Z,102146.66
2022-12-03T15:16:21.364Z,102149.66
2022-12-03T15:18:50.195Z,102157.09
2022-12-03T15:21:18.357Z,102162.59
2022-12-03T15:23:46.950Z,102158.47
2022-12-03T15:26:15.515Z,102157.09
2022-12-03T15:28:48.040Z,102159.84
2022-12-03T15:31:17.922Z,102154.34
2022-12-03T15:33:46.227Z,102162.00
2022-12-03T15:36:14.611Z,102162.31
2022-12-03T15:38:43.547Z,102159.00
2022-12-03T15:41:30.202Z,102160.63
2022-12-03T15:44:02.703Z,102170.25
2022-12-03T15:46:34.929Z,102172.97
2022-12-03T15:49:03.198Z,102170.22
2022-12-03T15:51:30.917Z,102166.13
2022-12-03T15:53:58.586Z,102165.00
2022-12-03T15:56:25.941Z,102182.03
2022-12-03T15:58:53.956Z,102172.97
2022-12-03T16:01:21.932Z,102167.44
2022-12-03T16:03:49.535Z,102157.28
2022-12-03T16:06:18.398Z,102162.78
2022-12-03T16:08:46.320Z,102161.72
2022-12-03T16:11:14.049Z,102166.06
2022-12-03T16:13:41.826Z,102169.94
2022-12-03T16:16:09.331Z,102161.13
2022-12-03T16:18:37.420Z,102168.84
2022-12-03T16:21:05.068Z,102156.19
2022-12-03T16:23:33.587Z,102153.16
2022-12-03T16:26:01.512Z,102164.69
2022-12-03T16:28:29.152Z,102160.31
2022-12-03T16:30:57.108Z,102159.78
2022-12-03T16:33:27.713Z,102160.59
2022-12-03T16:35:56.797Z,102165.00
2022-12-03T16:38:25.056Z,102169.66
2022-12-03T16:40:53.035Z,102163.06
2022-12-03T16:43:20.757Z,102161.66
2022-12-03T16:46:01.969Z,102160.03
2022-12-03T16:48:30.815Z,102157.63
2022-12-03T16:50:58.706Z,102151.81
2022-12-03T16:53:26.978Z,102159.22
2022-12-03T16:55:54.137Z,102157.84
2022-12-03T16:58:21.668Z,102151.25
2022-12-03T17:00:49.676Z,102153.19
2022-12-03T17:03:18.151Z,102154.25
2022-12-03T17:05:45.610Z,102146.84
2022-12-03T17:08:13.458Z,102139.69
2022-12-03T17:10:40.893Z,102148.50
2022-12-03T17:13:09.724Z,102159.75
2022-12-03T17:15:37.585Z,102150.16
2022-12-03T17:18:04.820Z,102154.84
2022-12-03T17:20:32.661Z,102153.72
2022-12-03T17:23:00.527Z,102161.44
2022-12-03T17:25:28.370Z,102159.19
2022-12-03T17:27:55.417Z,102158.09
2022-12-03T17:30:22.943Z,102156.97
2022-12-03T17:32:50.695Z,102152.31
2022-12-03T17:35:18.362Z,102152.31
2022-12-03T17:37:45.715Z,102164.69
2022-12-03T17:40:14.546Z,102154.00
2022-12-03T17:42:41.536Z,102139.69
2022-12-03T17:45:09.055Z,102149.59
2022-12-03T17:47:36.311Z,102153.41
2022-12-03T17:50:04.033Z,102145.97
2022-12-03T17:52:31.242Z,102130.84
2022-12-03T17:55:23.728Z,102152.53
2022-12-03T17:57:45.640Z,102150.88
2022-12-03T18:00:13.317Z,102153.31
2022-12-03T18:02:42.084Z,102155.25
2022-12-03T18:05:09.917Z,102151.41
2022-12-03T18:07:37.717Z,102146.44
2022-12-03T18:10:05.595Z,102144.00
2022-12-03T18:12:33.157Z,102134.09
2022-12-03T18:15:00.179Z,102134.91
2022-12-03T18:17:27.537Z,102140.13
2022-12-03T18:19:54.833Z,102141.00
2022-12-03T18:22:22.634Z,102139.63
2022-12-03T18:24:51.848Z,102116.75
2022-12-03T18:27:20.977Z,102131.66
2022-12-03T18:29:48.257Z,102139.56
2022-12-03T18:32:28.246Z,102131.59
2022-12-03T18:34:57.288Z,102129.97
2022-12-03T18:37:29.743Z,102121.72
2022-12-03T18:39:58.285Z,102128.59
2022-12-03T18:42:25.534Z,102114.56
2022-12-03T18:44:54.796Z,102126.63
2022-12-03T18:47:32.516Z,102127.19
2022-12-03T18:50:00.140Z,102113.47
2022-12-03T18:52:27.139Z,102122.75
2022-12-03T18:54:55.619Z,102102.16
2022-12-03T18:57:22.509Z,102118.91
2022-12-03T18:59:49.362Z,102123.84
2022-12-03T19:02:53.869Z,102114.00
2022-12-03T19:05:06.359Z,102117.56
2022-12-03T19:07:33.807Z,102116.72
2022-12-03T19:10:00.982Z,102112.31
2022-12-03T19:12:28.136Z,102114.25
2022-12-03T19:14:55.154Z,102116.22
2022-12-03T19:17:22.257Z,102122.50
2022-12-03T19:19:49.764Z,102124.97
2022-12-03T19:22:16.633Z,102125.53
2022-12-03T19:24:43.977Z,102120.53
2022-12-03T19:27:10.977Z,102105.69
2022-12-03T19:29:37.935Z,102113.91
2022-12-03T19:32:05.692Z,102126.84
2022-12-03T19:34:32.735Z,102123.84
2022-12-03T19:36:59.695Z,102110.16
2022-12-03T19:39:26.878Z,102118.41
2022-12-03T19:41:54.276Z,102122.00
2022-12-03T19:44:21.374Z,102126.31
2022-12-03T19:46:49.752Z,102106.00
2022-12-03T19:49:18.847Z,102123.56
2022-12-03T19:51:45.810Z,102110.38
2022-12-03T19:54:13.407Z,102093.09
2022-12-03T19:56:40.353Z,102131.53
2022-12-03T19:59:08.025Z,102115.31
2022-12-03T20:01:37.089Z,102109.59
2022-12-03T20:04:04.505Z,102109.03
2022-12-03T20:06:34.068Z,102124.41
2022-12-03T20:09:11.585Z,102117.78
2022-12-03T20:11:39.176Z,102120.00
2022-12-03T20:14:08.379Z,102110.69
2022-12-03T20:16:35.943Z,102098.06
2022-12-03T20:19:05.923Z,102109.06
2022-12-03T20:21:35.116Z,102108.97
2022-12-03T20:24:02.415Z,102098.81
2022-12-03T20:26:30.000Z,102114.50
2022-12-03T20:28:58.215Z,102107.91
2022-12-03T20:31:27.911Z,102107.41
2022-12-03T20:33:58.077Z,102093.38
2022-12-03T20:36:26.705Z,102099.41
2022-12-03T20:38:58.314Z,102090.31
2022-12-03T20:41:25.889Z,102093.88
2022-12-03T20:43:53.659Z,102092.78
2022-12-03T20:46:26.313Z,102093.63
2022-12-03T20:48:56.857Z,102093.31
2022-12-03T20:51:26.453Z,102069.44
2022-12-03T20:53:54.322Z,102087.56
2022-12-03T20:56:24.316Z,102099.06
2022-12-03T20:58:51.331Z,102086.47
2022-12-03T21:01:20.866Z,102084.78
2022-12-03T21:03:48.828Z,102089.16
2022-12-03T21:06:16.698Z,102082.28
2022-12-03T21:08:44.930Z,102089.41
2022-12-03T21:11:13.778Z,102084.75
2022-12-03T21:13:44.193Z,102076.25
2022-12-03T21:16:14.252Z,102079.28
2022-12-03T21:18:42.126Z,102072.69
2022-12-03T21:21:11.082Z,102074.88
2022-12-03T21:23:38.599Z,102069.69
2022-12-03T21:26:11.392Z,102066.63
2022-12-03T21:28:40.236Z,102069.94
2022-12-03T21:31:09.961Z,102072.19
2022-12-03T21:33:38.216Z,102068.59
2022-12-03T21:36:06.557Z,102069.75
2022-12-03T21:38:34.553Z,102065.63
2022-12-03T21:41:01.888Z,102057.91
2022-12-03T21:43:29.579Z,102058.78
2022-12-03T21:45:57.385Z,102053.03
2022-12-03T21:48:24.706Z,102035.69
2022-12-03T21:51:14.985Z,102050.81
2022-12-03T21:53:43.638Z,102050.88
2022-12-03T21:56:13.592Z,102055.81
2022-12-03T21:58:41.168Z,102050.66
2022-12-03T22:01:26.519Z,102060.50
2022-12-03T22:03:54.070Z,102049.78
2022-12-03T22:06:21.717Z,102048.91
2022-12-03T22:08:49.647Z,102044.78
2022-12-03T22:11:19.638Z,102049.47
2022-12-03T22:13:47.081Z,102048.06
2022-12-03T22:16:17.232Z,102050.28
2022-12-03T22:18:45.167Z,102052.72
2022-12-03T22:21:15.007Z,102057.38
2022-12-03T22:23:42.453Z,102055.16
2022-12-03T22:26:12.263Z,102054.66
2022-12-03T22:28:43.158Z,102055.97
2022-12-03T22:31:10.937Z,102053.28
2022-12-03T22:33:38.128Z,102054.44
2022-12-03T22:36:07.649Z,102043.97
2022-12-03T22:38:35.417Z,102057.13
2022-12-03T22:41:10.653Z,102059.56
2022-12-03T22:43:38.146Z,102053.00
2022-12-03T22:46:07.001Z,102065.88
2022-12-03T22:48:35.057Z,102061.47
2022-12-03T22:51:02.337Z,102052.66
2022-12-03T22:53:29.897Z,102062.00
2022-12-03T22:55:58.546Z,102053.75
2022-12-03T22:58:27.179Z,102049.66
2022-12-03T23:00:58.557Z,102053.25
2022-12-03T23:03:30.350Z,102037.28
2022-12-03T23:05:57.656Z,102040.56
2022-12-03T23:08:25.171Z,102040.31
2022-12-03T23:10:53.006Z,102060.66
2022-12-03T23:13:21.014Z,102062.28
2022-12-03T23:15:49.875Z,102046.31
2022-12-03T23:18:18.064Z,102074.06
2022-12-03T23:20:50.037Z,102058.16
2022-12-03T23:23:18.526Z,102045.28
2022-12-03T23:25:59.778Z,102051.53
2022-12-03T23:28:29.026Z,102049.06
2022-12-03T23:30:56.807Z,102052.94
2022-12-03T23:33:25.136Z,102037.28
2022-12-03T23:35:52.396Z,102043.34
2022-12-03T23:38:20.024Z,102047.50
2022-12-03T23:40:48.411Z,102043.34
2022-12-03T23:43:16.534Z,102046.41
2022-12-03T23:45:43.866Z,102031.06
2022-12-03T23:48:11.097Z,102037.84
2022-12-03T23:50:41.766Z,102039.22
2022-12-03T23:53:09.426Z,102030.22
2022-12-03T23:55:40.377Z,102039.81
2022-12-03T23:58:07.704Z,102042.56
